KMOT/MOT METAR and TAF weather

Enter ICAO airport designator
Station Type Date Time Source
KMOT METAR 2021/06/22 23:54 UTC NOAA

KMOT 222354Z 23005KT 10SM CLR 29/04 A2965 RMK AO2 SLP033 T02890039 10306 20267 58015


Station Type Date Time Source
KMOT Decoded METAR 2021/06/22 23:54 UTC NOAA

MINOT INTERNATIONAL AIRPORT , ND, United States (KMOT) 48-16N 101-17W 519M
Jun 22, 2021 - 07:54 PM EDT / 2021.06.22 2354 UTC
Wind: from the SW (230 degrees) at 6 MPH (5 KT):0
Visibility: 10 mile(s):0
Sky conditions: clear
Temperature: 84.0 F (28.9 C)
Dew Point: 39.0 F (3.9 C)
Relative Humidity: 20%
Pressure (altimeter): 29.65 in. Hg (1004 hPa)
Pressure tendency: 0.04 inches (1.5 hPa) lower than three hours ago
ob: KMOT 222354Z 23005KT 10SM CLR 29/04 A2965 RMK AO2 SLP033 T02890039 10306 20267 58015
cycle: 0

Station Type Date Time Source
KMOT TAF 2021/06/22 21:57 UTC NOAA

TAF
AMD KMOT 222055Z 2221/2318 23012G19KT P6SM SKC
FM230100 16007KT P6SM SCT250
FM231200 20010KT P6SM SCT250
FM231600 25012KT P6SM SCT250

Example: see airport list